Contact2017-01-16T18:42:02+00:00

Contact & Connect

262-AX-PILOT (297-4568) • info@flyaxiom.com

Your Name (required)

Your Email (required)

Your Message

Current METAR

KOGD 170753Z AUTO 16006KT 10SM SCT044 OVC055 M04/M05 A2982 RMK AO2 SLP113 I1000 T10391050 $